createdAt,value
2022-12-22T00:02:39.988Z,8.14
2022-12-22T00:05:46.938Z,8.04
2022-12-22T00:08:33.278Z,7.97
2022-12-22T00:11:20.085Z,7.95
2022-12-22T00:14:06.413Z,7.91
2022-12-22T00:16:55.424Z,7.90
2022-12-22T00:19:42.213Z,7.87
2022-12-22T00:22:41.869Z,7.92
2022-12-22T00:25:35.882Z,8.01
2022-12-22T00:28:32.132Z,8.05
2022-12-22T00:31:18.589Z,8.10
2022-12-22T00:34:05.343Z,8.07
2022-12-22T00:36:51.457Z,8.01
2022-12-22T00:39:37.897Z,7.97
2022-12-22T00:42:24.290Z,7.97
2022-12-22T00:45:10.515Z,7.97
2022-12-22T00:47:56.839Z,8.05
2022-12-22T00:50:50.270Z,8.16
2022-12-22T00:53:37.721Z,8.20
2022-12-22T00:56:25.386Z,8.20
2022-12-22T00:59:15.695Z,8.20
2022-12-22T01:02:02.259Z,8.19
2022-12-22T01:04:49.164Z,8.16
2022-12-22T01:07:45.674Z,8.16
2022-12-22T01:10:34.032Z,8.22
2022-12-22T01:13:20.851Z,8.18
2022-12-22T01:16:07.293Z,8.16
2022-12-22T01:18:53.859Z,8.12
2022-12-22T01:21:40.087Z,8.09
2022-12-22T01:24:36.358Z,8.04
2022-12-22T01:27:23.536Z,8.05
2022-12-22T01:30:10.015Z,8.08
2022-12-22T01:32:56.302Z,8.11
2022-12-22T01:35:48.108Z,8.18
2022-12-22T01:38:34.403Z,8.18
2022-12-22T01:41:23.368Z,8.07
2022-12-22T01:44:09.623Z,8.03
2022-12-22T01:47:05.660Z,8.05
2022-12-22T01:50:02.618Z,8.06
2022-12-22T01:52:53.948Z,8.06
2022-12-22T01:55:43.686Z,8.08
2022-12-22T01:58:45.664Z,8.01
2022-12-22T02:01:32.563Z,7.95
2022-12-22T02:04:19.678Z,7.95
2022-12-22T02:07:10.257Z,8.00
2022-12-22T02:10:21.477Z,7.93
2022-12-22T02:13:29.902Z,7.89
2022-12-22T02:16:25.857Z,7.83
2022-12-22T02:19:31.397Z,7.81
2022-12-22T02:22:45.336Z,7.82
2022-12-22T02:25:46.350Z,7.78
2022-12-22T02:28:34.535Z,7.78
2022-12-22T02:31:21.062Z,7.77
2022-12-22T02:34:07.682Z,7.81
2022-12-22T02:37:15.986Z,7.87
2022-12-22T02:40:47.448Z,7.91
2022-12-22T02:44:00.452Z,7.91
2022-12-22T02:47:09.839Z,7.93
2022-12-22T02:50:14.345Z,7.95
2022-12-22T02:53:03.662Z,7.88
2022-12-22T02:55:51.303Z,7.81
2022-12-22T02:58:38.657Z,7.77
2022-12-22T03:01:25.686Z,7.71
2022-12-22T03:04:12.350Z,7.70
2022-12-22T03:06:58.618Z,7.67
2022-12-22T03:09:44.883Z,7.72
2022-12-22T03:12:31.281Z,7.75
2022-12-22T03:15:17.714Z,7.78
2022-12-22T03:18:03.974Z,7.78
2022-12-22T03:20:50.317Z,7.79
2022-12-22T03:23:36.690Z,7.71
2022-12-22T03:26:04.565Z,7.67
2022-12-22T03:28:32.307Z,7.72
2022-12-22T03:31:05.436Z,7.72
2022-12-22T03:33:33.606Z,7.64
2022-12-22T03:36:01.566Z,7.54
2022-12-22T03:38:29.728Z,7.48
2022-12-22T03:40:57.692Z,7.46
2022-12-22T03:43:46.775Z,7.43
2022-12-22T03:46:17.592Z,7.44
2022-12-22T03:49:09.795Z,7.46
2022-12-22T03:51:50.355Z,7.42
2022-12-22T03:54:24.680Z,7.35
2022-12-22T03:56:54.088Z,7.29
2022-12-22T03:59:21.921Z,7.26
2022-12-22T04:01:54.599Z,7.24
2022-12-22T04:04:26.215Z,7.23
2022-12-22T04:06:55.483Z,7.24
2022-12-22T04:09:24.780Z,7.23
2022-12-22T04:12:11.430Z,7.25
2022-12-22T04:14:39.178Z,7.23
2022-12-22T04:17:07.758Z,7.21
2022-12-22T04:19:35.696Z,7.19
2022-12-22T04:22:03.633Z,7.19
2022-12-22T04:24:31.347Z,7.23
2022-12-22T04:26:59.068Z,7.27
2022-12-22T04:29:26.800Z,7.29
2022-12-22T04:31:54.481Z,7.32
2022-12-22T04:34:22.254Z,7.36
2022-12-22T04:36:49.972Z,7.33
2022-12-22T04:39:17.728Z,7.34
2022-12-22T04:41:45.488Z,7.33
2022-12-22T04:44:13.243Z,7.32
2022-12-22T04:46:40.988Z,7.28
2022-12-22T04:49:08.787Z,7.26
2022-12-22T04:51:36.555Z,7.28
2022-12-22T04:54:04.273Z,7.29
2022-12-22T04:56:32.169Z,7.25
2022-12-22T04:58:59.868Z,7.23
2022-12-22T05:01:28.066Z,7.25
2022-12-22T05:03:55.883Z,7.24
2022-12-22T05:06:23.678Z,7.25
2022-12-22T05:08:51.439Z,7.25
2022-12-22T05:11:19.304Z,7.21
2022-12-22T05:13:47.054Z,7.20
2022-12-22T05:16:16.746Z,7.17
2022-12-22T05:18:45.888Z,7.16
2022-12-22T05:21:21.013Z,7.14
2022-12-22T05:23:50.449Z,7.18
2022-12-22T05:26:19.479Z,7.19
2022-12-22T05:28:48.071Z,7.17
2022-12-22T05:31:22.801Z,7.18
2022-12-22T05:33:50.820Z,7.27
2022-12-22T05:36:19.715Z,7.31
2022-12-22T05:38:47.550Z,7.28
2022-12-22T05:41:15.341Z,7.27
2022-12-22T05:43:43.142Z,7.30
2022-12-22T05:46:11.765Z,7.32
2022-12-22T05:48:40.274Z,7.37
2022-12-22T05:51:10.225Z,7.43
2022-12-22T05:53:39.415Z,7.47
2022-12-22T05:56:08.395Z,7.49
2022-12-22T05:58:38.946Z,7.47
2022-12-22T06:01:07.601Z,7.46
2022-12-22T06:03:35.905Z,7.46
2022-12-22T06:06:04.184Z,7.46
2022-12-22T06:08:32.082Z,7.41
2022-12-22T06:10:59.787Z,7.39
2022-12-22T06:13:27.820Z,7.37
2022-12-22T06:15:55.626Z,7.38
2022-12-22T06:18:23.444Z,7.37
2022-12-22T06:20:53.354Z,7.35
2022-12-22T06:23:22.561Z,7.30
2022-12-22T06:25:56.337Z,7.21
2022-12-22T06:28:24.322Z,7.17
2022-12-22T06:30:53.404Z,7.15
2022-12-22T06:33:21.331Z,7.15
2022-12-22T06:35:53.849Z,7.14
2022-12-22T06:38:28.322Z,7.12
2022-12-22T06:40:56.474Z,7.09
2022-12-22T06:43:25.077Z,7.05
2022-12-22T06:45:53.624Z,7.04
2022-12-22T06:48:21.885Z,7.08
2022-12-22T06:50:49.636Z,7.05
2022-12-22T06:53:17.415Z,7.07
2022-12-22T06:55:45.527Z,7.11
2022-12-22T06:58:13.447Z,7.14
2022-12-22T07:00:41.208Z,7.13
2022-12-22T07:03:09.312Z,7.16
2022-12-22T07:05:37.183Z,7.18
2022-12-22T07:08:08.803Z,7.19
2022-12-22T07:10:55.992Z,7.19
2022-12-22T07:13:27.657Z,7.20
2022-12-22T07:16:00.459Z,7.22
2022-12-22T07:18:32.727Z,7.26
2022-12-22T07:21:02.210Z,7.28
2022-12-22T07:23:30.835Z,7.31
2022-12-22T07:25:59.866Z,7.33
2022-12-22T07:28:28.041Z,7.36
2022-12-22T07:30:55.909Z,7.38
2022-12-22T07:33:23.879Z,7.34
2022-12-22T07:36:13.797Z,7.35
2022-12-22T07:38:44.650Z,7.32
2022-12-22T07:41:34.379Z,7.33
2022-12-22T07:44:03.417Z,7.32
2022-12-22T07:46:35.964Z,7.33
2022-12-22T07:49:25.590Z,7.44
2022-12-22T07:51:57.939Z,7.45
2022-12-22T07:54:28.086Z,7.46
2022-12-22T07:56:56.465Z,7.44
2022-12-22T07:59:24.166Z,7.40
2022-12-22T08:01:52.006Z,7.37
2022-12-22T08:04:20.131Z,7.33
2022-12-22T08:06:48.205Z,7.32
2022-12-22T08:09:18.224Z,7.33
2022-12-22T08:11:45.968Z,7.32
2022-12-22T08:14:13.687Z,7.27
2022-12-22T08:16:41.543Z,7.26
2022-12-22T08:19:09.499Z,7.27
2022-12-22T08:21:37.536Z,7.31
2022-12-22T08:24:06.085Z,7.29
2022-12-22T08:26:58.128Z,7.29
2022-12-22T08:29:33.695Z,7.34
2022-12-22T08:32:02.073Z,7.37
2022-12-22T08:34:30.456Z,7.37
2022-12-22T08:37:02.229Z,7.35
2022-12-22T08:39:36.847Z,7.31
2022-12-22T08:42:08.807Z,7.34
2022-12-22T08:44:39.068Z,7.36
2022-12-22T08:47:13.054Z,7.39
2022-12-22T08:49:44.318Z,7.44
2022-12-22T08:52:18.004Z,7.43
2022-12-22T08:54:47.169Z,7.49
2022-12-22T08:57:15.034Z,7.55
2022-12-22T08:59:42.868Z,7.55
2022-12-22T09:02:10.695Z,7.52
2022-12-22T09:04:38.685Z,7.55
2022-12-22T09:07:06.728Z,7.59
2022-12-22T09:09:35.333Z,7.62
2022-12-22T09:12:04.251Z,7.65
2022-12-22T09:14:32.784Z,7.68
2022-12-22T09:17:00.748Z,7.70
2022-12-22T09:19:28.812Z,7.75
2022-12-22T09:21:56.867Z,7.76
2022-12-22T09:24:24.809Z,7.70
2022-12-22T09:26:52.998Z,7.67
2022-12-22T09:29:21.772Z,7.66
2022-12-22T09:31:49.742Z,7.67
2022-12-22T09:34:18.777Z,7.66
2022-12-22T09:36:47.973Z,7.68
2022-12-22T09:39:17.087Z,7.70
2022-12-22T09:41:54.955Z,7.69
2022-12-22T09:44:28.573Z,7.67
2022-12-22T09:47:01.451Z,7.70
2022-12-22T09:49:29.814Z,7.74
2022-12-22T09:52:03.680Z,7.78
2022-12-22T09:54:31.535Z,7.81
2022-12-22T09:56:59.389Z,7.84
2022-12-22T09:59:28.788Z,7.89
2022-12-22T10:02:00.618Z,7.93
2022-12-22T10:05:13.162Z,7.95
2022-12-22T10:07:42.581Z,7.95
2022-12-22T10:10:25.420Z,7.98
2022-12-22T10:13:01.182Z,8.03
2022-12-22T10:15:39.720Z,8.02
2022-12-22T10:18:17.064Z,8.02
2022-12-22T10:21:10.565Z,8.11
2022-12-22T10:23:45.590Z,8.21
2022-12-22T10:26:29.273Z,8.27
2022-12-22T10:29:13.717Z,8.30
2022-12-22T10:32:03.061Z,8.35
2022-12-22T10:34:31.612Z,8.42
2022-12-22T10:37:05.305Z,8.48
2022-12-22T10:39:36.527Z,8.47
2022-12-22T10:42:14.648Z,8.48
2022-12-22T10:44:48.523Z,8.52
2022-12-22T10:47:26.649Z,8.55
2022-12-22T10:52:32.190Z,8.64
2022-12-22T10:55:23.267Z,8.72
2022-12-22T10:57:52.479Z,8.81
2022-12-22T11:00:32.001Z,8.90
2022-12-22T11:03:02.819Z,9.02
2022-12-22T11:05:32.850Z,9.06
2022-12-22T11:08:17.234Z,9.14
2022-12-22T11:11:01.293Z,9.29
2022-12-22T11:14:13.133Z,9.41
2022-12-22T11:16:58.264Z,9.45
2022-12-22T11:19:50.078Z,9.54
2022-12-22T11:22:46.829Z,9.68
2022-12-22T11:26:11.229Z,9.71
2022-12-22T11:29:25.240Z,9.78
2022-12-22T11:32:19.425Z,9.80
2022-12-22T11:35:27.713Z,9.85
2022-12-22T11:38:29.679Z,9.92
2022-12-22T11:41:13.825Z,9.97
2022-12-22T11:44:18.911Z,9.99
2022-12-22T11:47:16.850Z,10.05
2022-12-22T11:50:46.074Z,10.10
2022-12-22T11:53:15.897Z,10.13
2022-12-22T11:56:13.617Z,10.19
2022-12-22T11:59:07.878Z,10.36
2022-12-22T12:02:16.229Z,10.39
2022-12-22T12:05:21.734Z,10.43
2022-12-22T12:08:04.186Z,10.49
2022-12-22T12:10:39.052Z,10.60
2022-12-22T12:13:49.906Z,10.73
2022-12-22T12:16:33.600Z,10.77
2022-12-22T12:19:39.796Z,10.83
2022-12-22T12:22:41.411Z,10.92
2022-12-22T12:25:52.275Z,10.99
2022-12-22T12:28:25.843Z,11.06
2022-12-22T12:31:00.376Z,11.15
2022-12-22T12:33:36.386Z,11.21
2022-12-22T12:36:44.931Z,11.22
2022-12-22T12:39:28.369Z,11.22
2022-12-22T12:42:04.107Z,11.19
2022-12-22T12:44:36.915Z,11.27
2022-12-22T12:47:24.835Z,11.28
2022-12-22T12:50:25.842Z,11.28
2022-12-22T12:52:53.479Z,11.31
2022-12-22T12:55:33.175Z,11.35
2022-12-22T12:58:04.195Z,11.39
2022-12-22T13:00:32.217Z,11.39
2022-12-22T13:03:07.670Z,11.36
2022-12-22T13:05:54.668Z,11.35
2022-12-22T13:08:29.475Z,11.34
2022-12-22T13:10:57.127Z,11.36
2022-12-22T13:13:24.810Z,11.34
2022-12-22T13:16:04.577Z,11.28
2022-12-22T13:18:35.469Z,11.28
2022-12-22T13:21:42.638Z,11.30
2022-12-22T13:24:27.584Z,11.30
2022-12-22T13:27:06.636Z,11.30
2022-12-22T13:29:46.837Z,11.32
2022-12-22T13:32:23.709Z,11.32
2022-12-22T13:38:00.388Z,11.31
2022-12-22T13:40:41.487Z,11.32
2022-12-22T13:43:19.732Z,11.33
2022-12-22T13:45:55.249Z,11.33
2022-12-22T13:48:45.548Z,11.32
2022-12-22T13:51:35.575Z,11.29
2022-12-22T13:54:26.821Z,11.28
2022-12-22T13:56:57.214Z,11.27
2022-12-22T13:59:33.696Z,11.27
2022-12-22T14:02:08.846Z,11.29
2022-12-22T14:04:39.774Z,11.33
2022-12-22T14:07:20.106Z,11.36
2022-12-22T14:09:50.756Z,11.34
2022-12-22T14:12:23.389Z,11.36
2022-12-22T14:14:54.881Z,11.38
2022-12-22T14:17:32.607Z,11.39
2022-12-22T14:20:15.914Z,11.41
2022-12-22T14:22:54.738Z,11.40
2022-12-22T14:25:30.267Z,11.42
2022-12-22T14:28:00.057Z,11.43
2022-12-22T14:30:45.084Z,11.47
2022-12-22T14:33:28.022Z,11.50
2022-12-22T14:36:21.781Z,11.53
2022-12-22T14:38:54.187Z,11.57
2022-12-22T14:41:44.282Z,11.59
2022-12-22T14:44:21.877Z,11.59
2022-12-22T14:47:17.833Z,11.59
2022-12-22T14:50:13.908Z,11.63
2022-12-22T14:52:51.208Z,11.65
2022-12-22T14:55:34.589Z,11.64
2022-12-22T14:58:21.629Z,11.65
2022-12-22T15:01:28.236Z,11.64
2022-12-22T15:04:19.410Z,11.61
2022-12-22T15:06:49.186Z,11.60
2022-12-22T15:09:16.844Z,11.64
2022-12-22T15:11:52.536Z,11.57
2022-12-22T15:14:26.535Z,11.53
2022-12-22T15:17:01.682Z,11.51
2022-12-22T15:19:35.705Z,11.50
2022-12-22T15:22:08.027Z,11.49
2022-12-22T15:24:35.753Z,11.49
2022-12-22T15:27:03.668Z,11.45
2022-12-22T15:29:31.493Z,11.41
2022-12-22T15:31:59.268Z,11.38
2022-12-22T15:34:30.693Z,11.36
2022-12-22T15:36:59.072Z,11.34
2022-12-22T15:39:27.098Z,11.34
2022-12-22T15:41:54.893Z,11.34
2022-12-22T15:44:22.800Z,11.36
2022-12-22T15:46:56.415Z,11.34
2022-12-22T15:49:29.582Z,11.31
2022-12-22T15:52:02.705Z,11.30
2022-12-22T15:54:33.140Z,11.29
2022-12-22T15:57:01.605Z,11.29
2022-12-22T15:59:30.274Z,11.27
2022-12-22T16:02:01.972Z,11.29
2022-12-22T16:04:30.247Z,11.29
2022-12-22T16:06:59.539Z,11.28
2022-12-22T16:09:32.768Z,11.26
2022-12-22T16:12:00.673Z,11.24
2022-12-22T16:14:32.385Z,11.20
2022-12-22T16:17:03.204Z,11.18
2022-12-22T16:19:30.979Z,11.18
2022-12-22T16:21:58.728Z,11.16
2022-12-22T16:24:35.191Z,11.16
2022-12-22T16:27:03.425Z,11.15
2022-12-22T16:29:31.260Z,11.15
2022-12-22T16:32:17.928Z,11.14
2022-12-22T16:34:46.032Z,11.16
2022-12-22T16:37:13.780Z,11.14
2022-12-22T16:39:41.529Z,11.16
2022-12-22T16:45:01.051Z,11.14
2022-12-22T16:47:35.127Z,11.13
2022-12-22T16:50:03.850Z,11.14
2022-12-22T16:52:38.712Z,11.13
2022-12-22T16:55:17.118Z,11.12
2022-12-22T16:57:45.265Z,11.14
2022-12-22T17:00:23.257Z,11.11
2022-12-22T17:02:59.480Z,11.12
2022-12-22T17:05:43.733Z,11.14
2022-12-22T17:08:27.246Z,11.15
2022-12-22T17:11:01.128Z,11.15
2022-12-22T17:13:31.913Z,11.13
2022-12-22T17:16:01.572Z,11.14
2022-12-22T17:18:31.166Z,11.13
2022-12-22T17:21:00.433Z,11.13
2022-12-22T17:23:36.361Z,11.11
2022-12-22T17:26:09.396Z,11.13
2022-12-22T17:28:38.653Z,11.15
2022-12-22T17:31:06.936Z,11.15
2022-12-22T17:33:34.652Z,11.18
2022-12-22T17:36:02.771Z,11.16
2022-12-22T17:38:30.697Z,11.13
2022-12-22T17:40:58.457Z,11.14
2022-12-22T17:43:26.311Z,11.14
2022-12-22T17:45:54.179Z,11.10
2022-12-22T17:48:22.036Z,11.07
2022-12-22T17:50:50.328Z,11.06
2022-12-22T17:53:20.829Z,11.05
2022-12-22T17:58:37.153Z,11.02
2022-12-22T18:01:05.069Z,11.03
2022-12-22T18:03:33.861Z,11.01
2022-12-22T18:06:01.752Z,11.00
2022-12-22T18:08:29.526Z,10.99
2022-12-22T18:10:57.281Z,10.97
2022-12-22T18:13:26.267Z,10.95
2022-12-22T18:15:55.799Z,10.96
2022-12-22T18:18:24.198Z,10.96
2022-12-22T18:21:05.888Z,10.95
2022-12-22T18:23:37.437Z,10.95
2022-12-22T18:26:10.552Z,10.94
2022-12-22T18:28:38.315Z,10.94
2022-12-22T18:31:06.248Z,10.94
2022-12-22T18:33:33.940Z,10.93
2022-12-22T18:36:02.293Z,10.90
2022-12-22T18:38:33.848Z,10.91
2022-12-22T18:41:01.942Z,10.94
2022-12-22T18:43:29.675Z,10.94
2022-12-22T18:45:57.475Z,10.93
2022-12-22T18:48:25.266Z,10.93
2022-12-22T18:50:53.107Z,10.94
2022-12-22T18:53:30.713Z,11.00
2022-12-22T18:55:59.476Z,11.00
2022-12-22T18:58:28.294Z,11.00
2022-12-22T19:00:56.540Z,11.03
2022-12-22T19:03:29.235Z,11.01
2022-12-22T19:05:58.451Z,11.01
2022-12-22T19:08:27.986Z,11.01
2022-12-22T19:11:00.369Z,11.01
2022-12-22T19:13:39.408Z,11.02
2022-12-22T19:16:11.332Z,11.01
2022-12-22T19:18:39.087Z,10.98
2022-12-22T19:21:13.221Z,10.97
2022-12-22T19:23:41.681Z,10.96
2022-12-22T19:26:22.264Z,10.93
2022-12-22T19:28:57.086Z,10.92
2022-12-22T19:31:29.225Z,10.90
2022-12-22T19:34:00.272Z,10.88
2022-12-22T19:36:30.552Z,10.88
2022-12-22T19:39:05.469Z,10.85
2022-12-22T19:41:49.238Z,10.81
2022-12-22T19:44:27.469Z,10.78
2022-12-22T19:46:59.398Z,10.75
2022-12-22T19:49:28.797Z,10.73
2022-12-22T19:51:57.614Z,10.71
2022-12-22T19:54:25.445Z,10.70
2022-12-22T19:56:56.377Z,10.70
2022-12-22T19:59:41.621Z,10.69
2022-12-22T20:02:22.188Z,10.69
2022-12-22T20:04:51.138Z,10.68
2022-12-22T20:07:22.383Z,10.67
2022-12-22T20:09:50.902Z,10.68
2022-12-22T20:12:37.838Z,10.66
2022-12-22T20:15:22.769Z,10.64
2022-12-22T20:17:53.294Z,10.63
2022-12-22T20:20:37.375Z,10.61
2022-12-22T20:23:27.209Z,10.61
2022-12-22T20:26:04.951Z,10.61
2022-12-22T20:28:39.406Z,10.59
2022-12-22T20:31:09.006Z,10.57
2022-12-22T20:33:36.788Z,10.56
2022-12-22T20:36:24.568Z,10.57
2022-12-22T20:38:57.229Z,10.55
2022-12-22T20:41:26.554Z,10.57
2022-12-22T20:43:54.307Z,10.60
2022-12-22T20:46:28.795Z,10.61
2022-12-22T20:49:01.685Z,10.61
2022-12-22T20:51:33.421Z,10.61
2022-12-22T20:54:01.674Z,10.63
2022-12-22T20:56:38.936Z,10.63
2022-12-22T20:59:21.247Z,10.61
2022-12-22T21:01:52.070Z,10.62
2022-12-22T21:04:21.495Z,10.60
2022-12-22T21:06:52.889Z,10.61
2022-12-22T21:09:20.612Z,10.63
2022-12-22T21:11:49.324Z,10.61
2022-12-22T21:14:17.125Z,10.58
2022-12-22T21:16:44.994Z,10.59
2022-12-22T21:19:18.584Z,10.58
2022-12-22T21:21:47.484Z,10.58
2022-12-22T21:24:15.374Z,10.59
2022-12-22T21:26:53.070Z,10.55
2022-12-22T21:29:25.186Z,10.54
2022-12-22T21:31:53.797Z,10.52
2022-12-22T21:34:21.727Z,10.49
2022-12-22T21:36:58.646Z,10.48
2022-12-22T21:39:41.649Z,10.47
2022-12-22T21:42:15.382Z,10.47
2022-12-22T21:44:45.130Z,10.48
2022-12-22T21:47:16.962Z,10.50
2022-12-22T21:49:45.060Z,10.51
2022-12-22T21:52:12.792Z,10.52
2022-12-22T21:54:40.515Z,10.54
2022-12-22T21:57:15.869Z,10.57
2022-12-22T21:59:43.812Z,10.57
2022-12-22T22:02:16.859Z,10.55
2022-12-22T22:04:51.794Z,10.54
2022-12-22T22:07:23.033Z,10.54
2022-12-22T22:09:50.762Z,10.55
2022-12-22T22:12:33.756Z,10.56
2022-12-22T22:15:01.899Z,10.56
2022-12-22T22:17:29.901Z,10.52
2022-12-22T22:19:57.646Z,10.48
2022-12-22T22:22:25.459Z,10.45
2022-12-22T22:24:53.200Z,10.43
2022-12-22T22:27:21.401Z,10.41
2022-12-22T22:29:49.209Z,10.41
2022-12-22T22:32:17.052Z,10.40
2022-12-22T22:34:44.783Z,10.38
2022-12-22T22:37:12.518Z,10.37
2022-12-22T22:39:40.174Z,10.36
2022-12-22T22:42:07.986Z,10.34
2022-12-22T22:44:35.687Z,10.31
2022-12-22T22:47:03.716Z,10.31
2022-12-22T22:49:31.713Z,10.32
2022-12-22T22:51:59.467Z,10.31
2022-12-22T22:54:27.222Z,10.27
2022-12-22T22:56:55.076Z,10.24
2022-12-22T22:59:23.423Z,10.23
2022-12-22T23:01:51.258Z,10.23
2022-12-22T23:04:19.205Z,10.24
2022-12-22T23:06:47.030Z,10.23
2022-12-22T23:09:15.047Z,10.21
2022-12-22T23:11:42.840Z,10.20
2022-12-22T23:14:10.978Z,10.18
2022-12-22T23:16:39.152Z,10.16
2022-12-22T23:19:07.116Z,10.18
2022-12-22T23:21:34.928Z,10.15
2022-12-22T23:24:02.665Z,10.14
2022-12-22T23:26:30.591Z,10.15
2022-12-22T23:29:03.337Z,10.14
2022-12-22T23:31:33.743Z,10.12
2022-12-22T23:34:01.838Z,10.13
2022-12-22T23:36:30.141Z,10.12
2022-12-22T23:38:57.929Z,10.09
2022-12-22T23:41:25.706Z,10.07
2022-12-22T23:43:54.865Z,10.07
2022-12-22T23:46:23.321Z,10.06
2022-12-22T23:48:57.417Z,10.04
2022-12-22T23:51:28.095Z,10.02
2022-12-22T23:53:58.937Z,10.02
2022-12-22T23:56:28.891Z,10.03
2022-12-22T23:58:57.196Z,9.99
